Time;durP1;ratioP1;P1;durP2;ratioP2;P2;SDS_P1;SDS_P2;PMS_P1;PMS_P2;Temp;Humidity;BMP_temperature;BMP_pressure;BME280_temperature;BME280_humidity;BME280_pressure;Samples;Min_cycle;Max_cycle;Signal;HPM_P1;HPM_P2
2021/03/20 00:01:36;;;;;;;6.75;5.42;;;;;;;19.76;34.14;99373.39;1727864;82;21152;-14
2021/03/20 00:04:05;;;;;;;7.35;5.78;;;;;;;19.81;34.22;99375.72;1765282;80;21177;-15
2021/03/20 00:06:39;;;;;;;9.93;5.45;;;;;;;19.82;34.26;99372.94;1732682;80;21228;-13
2021/03/20 00:09:09;;;;;;;6.87;6.10;;;;;;;19.84;34.32;99379.00;1763375;80;21689;-13
2021/03/20 00:11:37;;;;;;;9.33;5.20;;;;;;;19.87;34.42;99376.59;1736522;81;21173;-13
2021/03/20 00:14:05;;;;;;;8.03;5.55;;;;;;;19.91;34.47;99374.55;1733760;80;21157;-14
2021/03/20 00:16:33;;;;;;;11.45;5.80;;;;;;;19.94;34.49;99376.49;1766059;80;21177;-13
2021/03/20 00:19:00;;;;;;;8.48;5.25;;;;;;;19.98;34.49;99374.44;1707940;82;21145;-15
2021/03/20 00:21:28;;;;;;;7.72;5.87;;;;;;;20.02;34.51;99374.09;1739683;80;21568;-14
2021/03/20 00:23:55;;;;;;;8.78;5.60;;;;;;;20.06;34.53;99376.54;1734479;80;21217;-15
2021/03/20 00:26:23;;;;;;;6.17;5.55;;;;;;;20.08;34.58;99375.44;1756975;80;21217;-13
2021/03/20 00:28:52;;;;;;;10.30;5.58;;;;;;;20.12;34.58;99377.38;1766145;80;21192;-13
2021/03/20 00:31:19;;;;;;;5.72;5.20;;;;;;;20.14;34.63;99380.32;1737635;81;21237;-14
2021/03/20 00:33:47;;;;;;;6.97;5.33;;;;;;;20.15;34.68;99379.83;1731964;80;21649;-13
2021/03/20 00:36:15;;;;;;;5.62;5.08;;;;;;;20.18;34.74;99380.94;1728104;81;21269;-14
2021/03/20 00:38:44;;;;;;;9.18;5.75;;;;;;;20.20;34.71;99377.16;1737532;81;21596;-13
2021/03/20 00:41:12;;;;;;;7.47;5.20;;;;;;;20.23;34.73;99375.59;1742128;81;21230;-14
2021/03/20 00:43:40;;;;;;;8.93;5.60;;;;;;;20.24;34.72;99377.80;1746744;81;21191;-14
2021/03/20 00:46:08;;;;;;;8.03;5.40;;;;;;;20.29;34.75;99376.95;1746923;81;21058;-14
2021/03/20 00:48:39;;;;;;;7.37;5.45;;;;;;;20.30;34.75;99375.97;1715314;81;21216;-13
2021/03/20 00:51:07;;;;;;;7.72;5.22;;;;;;;20.31;34.75;99372.34;1716376;82;21671;-13
2021/03/20 00:53:35;;;;;;;6.45;4.80;;;;;;;20.34;34.78;99372.11;1744495;81;21560;-12
2021/03/20 00:56:05;;;;;;;6.33;5.17;;;;;;;20.35;34.80;99367.11;1744948;81;21655;-14
2021/03/20 00:58:38;;;;;;;6.92;5.40;;;;;;;20.38;34.78;99370.05;1715861;82;21173;-12
2021/03/20 01:01:13;;;;;;;7.92;4.97;;;;;;;20.40;34.78;99371.61;1741758;81;21197;-13
2021/03/20 01:03:41;;;;;;;5.78;5.12;;;;;;;20.43;34.79;99365.19;1742823;81;21665;-13
2021/03/20 01:06:13;;;;;;;8.80;4.97;;;;;;;20.45;34.80;99366.41;1741016;81;21211;-12
2021/03/20 01:08:41;;;;;;;5.47;4.85;;;;;;;20.47;34.80;99361.29;1741208;81;21237;-12
2021/03/20 01:11:09;;;;;;;5.67;4.92;;;;;;;20.48;34.78;99366.17;1705651;82;21153;-13
2021/03/20 01:13:37;;;;;;;7.78;5.15;;;;;;;20.51;34.79;99364.57;1741426;82;21911;-14
2021/03/20 01:16:06;;;;;;;5.95;4.75;;;;;;;20.52;34.81;99364.95;1734550;82;21568;-13
2021/03/20 01:18:34;;;;;;;6.25;4.55;;;;;;;20.53;34.80;99363.98;1743751;82;21113;-13
2021/03/20 01:21:03;;;;;;;7.78;4.97;;;;;;;20.54;34.83;99356.31;1734695;82;21220;-13
2021/03/20 01:23:30;;;;;;;5.75;4.78;;;;;;;20.56;34.83;99355.70;1731305;81;21125;-13
2021/03/20 01:25:58;;;;;;;5.37;4.87;;;;;;;20.58;34.82;99363.14;1708739;82;21304;-13
2021/03/20 01:28:27;;;;;;;6.28;5.20;;;;;;;20.59;34.81;99355.47;1680559;83;21144;-12
2021/03/20 01:30:55;;;;;;;10.50;5.05;;;;;;;20.61;34.82;99352.21;1699313;83;21180;-13
2021/03/20 01:33:25;;;;;;;5.78;4.75;;;;;;;20.63;34.81;99353.43;1711520;82;21173;-13
2021/03/20 01:35:54;;;;;;;6.72;4.78;;;;;;;20.64;34.80;99354.65;1678793;84;21198;-13
2021/03/20 01:38:22;;;;;;;6.25;4.60;;;;;;;20.66;34.80;99359.41;1745056;80;21225;-13
2021/03/20 01:40:53;;;;;;;5.20;4.70;;;;;;;20.67;34.79;99362.43;1732176;80;21647;-13
2021/03/20 01:43:23;;;;;;;6.20;4.53;;;;;;;20.68;34.80;99360.13;1735598;81;21604;-13
2021/03/20 01:45:51;;;;;;;7.85;4.72;;;;;;;20.69;34.83;99359.14;1748270;81;21195;-13
2021/03/20 01:48:25;;;;;;;5.28;4.62;;;;;;;20.70;34.79;99367.54;1703541;82;21695;-12
2021/03/20 01:51:00;;;;;;;6.55;4.80;;;;;;;20.70;34.83;99366.20;1708749;81;21178;-14
2021/03/20 01:53:50;;;;;;;5.00;4.50;;;;;;;20.73;34.82;99367.80;1700078;82;21160;-12
2021/03/20 01:56:21;;;;;;;6.30;4.40;;;;;;;20.73;34.81;99371.31;1743020;80;21489;-12
2021/03/20 01:58:49;;;;;;;5.87;4.35;;;;;;;20.75;34.82;99378.72;1743175;80;21211;-13
2021/03/20 02:01:21;;;;;;;6.40;5.05;;;;;;;20.76;34.83;99378.22;1720822;81;21149;-12
2021/03/20 02:03:49;;;;;;;6.62;4.85;;;;;;;20.75;34.83;99375.20;1732582;80;21211;-13
2021/03/20 02:06:16;;;;;;;7.42;4.62;;;;;;;20.76;34.83;99376.89;1716373;82;21232;-14
2021/03/20 02:08:46;;;;;;;5.30;4.83;;;;;;;20.77;34.82;99382.61;1737318;80;21102;-13
2021/03/20 02:11:41;;;;;;;5.45;4.50;;;;;;;20.76;34.86;99381.77;1735657;81;21169;-12
2021/03/20 02:14:35;;;;;;;6.10;4.53;;;;;;;20.78;34.85;99389.17;1742901;80;21626;-12
2021/03/20 02:17:41;;;;;;;5.03;4.55;;;;;;;20.80;34.84;99386.88;1726611;81;22719;-13
2021/03/20 02:20:44;;;;;;;4.92;4.42;;;;;;;20.80;34.87;99385.55;1739506;80;21216;-13
2021/03/20 02:23:51;;;;;;;5.00;4.50;;;;;;;20.80;34.86;99389.55;1735796;80;21141;-13
2021/03/20 02:26:49;;;;;;;4.72;4.33;;;;;;;20.81;34.87;99393.91;1742746;80;21113;-13
2021/03/20 02:29:50;;;;;;;5.08;4.10;;;;;;;20.81;34.87;99390.74;1742244;81;21155;-14
2021/03/20 02:32:41;;;;;;;5.03;4.53;;;;;;;20.82;34.86;99395.62;1743859;80;21273;-13
2021/03/20 02:35:38;;;;;;;5.55;4.75;;;;;;;20.81;34.89;99399.26;1720982;81;21166;-14
2021/03/20 02:38:14;;;;;;;4.70;4.20;;;;;;;20.80;34.94;99401.09;1685000;83;21189;-14
2021/03/20 02:40:53;;;;;;;5.22;4.58;;;;;;;20.80;34.94;99401.59;1736286;80;21224;-13
2021/03/20 02:44:00;;;;;;;5.53;4.58;;;;;;;20.80;34.99;99402.43;1763606;80;21770;-13
2021/03/20 02:46:38;;;;;;;4.67;4.22;;;;;;;20.81;35.00;99401.94;1747639;80;21203;-13
2021/03/20 02:49:42;;;;;;;8.40;4.45;;;;;;;20.80;35.01;99400.25;1750431;80;21201;-13
2021/03/20 02:52:33;;;;;;;9.35;4.37;;;;;;;20.81;34.99;99405.45;1685770;82;21604;-13
2021/03/20 02:55:14;;;;;;;4.42;4.00;;;;;;;20.81;34.95;99402.77;1706658;82;21227;-13
2021/03/20 02:57:50;;;;;;;7.17;4.15;;;;;;;20.82;34.90;99403.64;1760787;80;21208;-13
2021/03/20 03:00:26;;;;;;;4.17;3.80;;;;;;;20.82;34.86;99411.67;1738045;80;21212;-13
2021/03/20 03:02:53;;;;;;;4.50;4.10;;;;;;;20.80;34.88;99409.61;1730268;80;21240;-12
2021/03/20 03:05:35;;;;;;;6.25;4.58;;;;;;;20.77;34.95;99411.53;1758896;80;21559;-13
2021/03/20 03:08:09;;;;;;;8.93;4.20;;;;;;;20.77;35.03;99412.86;1694183;82;21634;-13
2021/03/20 03:10:44;;;;;;;6.87;4.20;;;;;;;20.78;35.09;99410.57;1732256;80;21600;-15
2021/03/20 03:13:25;;;;;;;7.28;4.28;;;;;;;20.82;35.06;99415.68;1759421;80;21279;-15
2021/03/20 03:15:57;;;;;;;4.30;3.90;;;;;;;20.83;35.03;99422.25;1754639;80;21742;-14
2021/03/20 03:18:35;;;;;;;4.65;4.00;;;;;;;20.85;35.03;99419.45;1743391;80;21613;-14
2021/03/20 03:21:05;;;;;;;4.50;4.05;;;;;;;20.86;35.09;99421.14;1754704;80;21156;-13
2021/03/20 03:23:36;;;;;;;3.77;3.42;;;;;;;20.86;35.06;99427.33;1742173;80;21593;-14
2021/03/20 03:26:15;;;;;;;10.32;4.03;;;;;;;20.88;35.11;99430.75;1671232;82;21488;-14
2021/03/20 03:28:51;;;;;;;4.40;3.90;;;;;;;20.89;35.15;99426.25;1699356;82;21213;-14
2021/03/20 03:31:27;;;;;;;6.70;3.67;;;;;;;20.90;35.17;99427.96;1700183;82;21225;-14
2021/03/20 03:34:02;;;;;;;4.00;3.70;;;;;;;20.91;35.20;99429.64;1766419;80;21117;-14
2021/03/20 03:36:35;;;;;;;4.03;3.62;;;;;;;20.91;35.24;99426.97;1764534;80;21612;-13
2021/03/20 03:39:31;;;;;;;7.30;3.58;;;;;;;20.93;35.27;99431.70;1763868;80;21161;-14
2021/03/20 03:41:59;;;;;;;4.00;3.60;;;;;;;20.93;35.27;99430.37;1763842;80;21167;-12
2021/03/20 03:44:26;;;;;;;4.70;3.70;;;;;;;20.93;35.29;99425.89;1759975;80;21151;-14
2021/03/20 03:46:54;;;;;;;3.83;3.52;;;;;;;20.94;35.27;99428.91;1724137;81;21163;-13
2021/03/20 03:49:23;;;;;;;4.10;3.40;;;;;;;20.94;35.34;99418.21;1730918;80;21843;-12
2021/03/20 03:51:51;;;;;;;5.03;3.58;;;;;;;20.96;35.38;99428.33;1746639;80;21212;-13
2021/03/20 03:54:19;;;;;;;4.17;3.87;;;;;;;20.96;35.42;99425.66;1740446;80;21185;-13
2021/03/20 03:57:03;;;;;;;4.42;4.03;;;;;;;20.96;35.48;99426.12;1761688;80;21169;-14
2021/03/20 04:00:09;;;;;;;4.00;3.47;;;;;;;20.97;35.52;99423.82;1741986;80;21249;-13
2021/03/20 04:02:54;;;;;;;4.20;3.77;;;;;;;20.97;35.60;99433.19;1733706;80;21206;-13
2021/03/20 04:05:51;;;;;;;4.20;3.55;;;;;;;20.98;35.63;99432.22;1728126;81;21167;-13
2021/03/20 04:08:38;;;;;;;3.40;3.20;;;;;;;21.00;35.68;99431.61;1767824;80;21172;-12
2021/03/20 04:11:35;;;;;;;4.53;3.58;;;;;;;21.01;35.75;99434.63;1759544;80;21205;-14
2021/03/20 04:14:21;;;;;;;4.83;3.42;;;;;;;21.00;35.85;99428.94;1740555;80;21128;-13
2021/03/20 04:17:25;;;;;;;4.37;3.50;;;;;;;21.02;35.84;99434.16;1747779;80;21173;-13
2021/03/20 04:20:01;;;;;;;3.83;3.25;;;;;;;21.05;35.89;99439.27;1760882;80;21136;-13
2021/03/20 04:22:49;;;;;;;5.00;3.42;;;;;;;21.03;35.89;99439.39;1729168;80;21235;-13
2021/03/20 04:25:50;;;;;;;3.67;3.35;;;;;;;21.04;35.90;99442.41;1732824;80;21189;-12
2021/03/20 04:28:26;;;;;;;4.15;3.60;;;;;;;21.04;35.91;99443.75;1767025;80;21183;-14
2021/03/20 04:31:19;;;;;;;3.45;3.15;;;;;;;21.06;35.90;99448.98;1764373;80;21161;-14
2021/03/20 04:33:53;;;;;;;3.65;3.33;;;;;;;21.07;35.91;99447.52;1754334;80;21224;-13
2021/03/20 04:36:25;;;;;;;3.33;3.02;;;;;;;21.08;35.90;99445.23;1764900;80;21224;-12
2021/03/20 04:38:53;;;;;;;4.20;3.77;;;;;;;21.10;35.92;99444.61;1679928;83;21581;-13
2021/03/20 04:41:20;;;;;;;4.95;3.08;;;;;;;21.11;35.95;99455.66;1761976;80;21200;-12
2021/03/20 04:43:48;;;;;;;5.33;3.72;;;;;;;21.12;35.98;99447.17;1727618;82;21217;-14
2021/03/20 04:46:21;;;;;;;3.72;3.30;;;;;;;21.13;35.97;99449.72;1764090;80;22938;-13
2021/03/20 04:49:26;;;;;;;3.55;2.98;;;;;;;21.13;36.01;99452.39;1703869;82;21294;-13
2021/03/20 04:52:08;;;;;;;3.70;3.40;;;;;;;21.15;35.98;99449.11;1737701;80;21640;-14
2021/03/20 04:54:36;;;;;;;6.50;3.42;;;;;;;21.14;36.04;99452.74;1770320;80;21169;-14
2021/03/20 04:57:24;;;;;;;3.45;3.15;;;;;;;21.14;36.12;99454.08;1698864;82;21308;-14
2021/03/20 05:00:08;;;;;;;3.92;2.90;;;;;;;21.14;36.09;99459.43;1713186;80;21216;-12
2021/03/20 05:02:52;;;;;;;3.75;3.45;;;;;;;21.17;36.05;99469.55;1770860;80;26228;-13
2021/03/20 05:05:28;;;;;;;3.60;3.30;;;;;;;21.15;35.93;99466.50;1763535;80;21125;-13
2021/03/20 05:08:02;;;;;;;3.45;3.15;;;;;;;21.16;35.85;99474.03;1762601;80;21205;-13
2021/03/20 05:10:37;;;;;;;3.25;3.05;;;;;;;21.14;35.80;99475.98;1762709;80;21194;-13
2021/03/20 05:13:07;;;;;;;3.47;3.20;;;;;;;21.13;35.73;99479.15;1753755;80;22230;-14
2021/03/20 05:15:35;;;;;;;3.83;3.52;;;;;;;21.11;35.70;99471.70;1734806;80;21220;-13
2021/03/20 05:18:05;;;;;;;3.85;3.47;;;;;;;21.12;35.67;99480.61;1761417;80;21143;-13
2021/03/20 05:20:32;;;;;;;5.87;3.20;;;;;;;21.13;35.75;99474.27;1766951;80;21131;-13
2021/03/20 05:23:00;;;;;;;4.83;3.33;;;;;;;21.14;35.86;99484.84;1729555;80;21156;-13
2021/03/20 05:25:27;;;;;;;3.90;3.60;;;;;;;21.15;35.91;99489.23;1767626;80;21698;-12
2021/03/20 05:27:55;;;;;;;8.45;3.20;;;;;;;21.18;35.74;99490.80;1759282;80;21173;-13
2021/03/20 05:30:24;;;;;;;18.73;3.50;;;;;;;21.19;35.71;99488.50;1734772;80;21145;-13
2021/03/20 05:32:52;;;;;;;15.63;3.60;;;;;;;21.23;35.86;99489.11;1766000;80;21303;-14
2021/03/20 05:35:24;;;;;;;11.30;3.75;;;;;;;21.25;36.01;99487.16;1755849;80;21118;-13
2021/03/20 05:37:51;;;;;;;20.20;3.80;;;;;;;21.28;35.90;99485.58;1742842;80;22085;-13
2021/03/20 05:40:32;;;;;;;14.10;4.25;;;;;;;21.33;35.83;99492.75;1693151;80;21221;-13
2021/03/20 05:43:37;;;;;;;7.53;5.20;;;;;;;21.38;35.60;99493.73;1757179;80;21137;-13
2021/03/20 05:46:25;;;;;;;16.48;9.30;;;;;;;21.39;33.88;99492.27;1682266;82;22005;-15
2021/03/20 05:49:29;;;;;;;16.80;8.70;;;;;;;21.27;31.85;99497.27;1750692;80;21233;-14
2021/03/20 05:52:18;;;;;;;15.00;8.00;;;;;;;21.13;31.44;99504.57;1752511;80;21264;-14
2021/03/20 05:54:59;;;;;;;13.88;7.25;;;;;;;21.05;30.77;99496.29;1749454;80;21201;-14
2021/03/20 05:57:34;;;;;;;11.48;7.12;;;;;;;21.01;29.98;99506.00;1764761;80;21196;-14
2021/03/20 06:00:35;;;;;;;9.90;6.62;;;;;;;20.92;28.95;99500.89;1737330;80;21209;-15
2021/03/20 06:03:31;;;;;;;11.53;7.08;;;;;;;20.84;28.66;99503.31;1660626;83;21029;-13
2021/03/20 06:06:22;;;;;;;8.00;6.12;;;;;;;20.77;28.51;99502.94;1742412;80;22248;-13
2021/03/20 06:09:17;;;;;;;8.53;6.78;;;;;;;20.75;28.52;99502.20;1736417;80;21226;-13
2021/03/20 06:12:07;;;;;;;8.45;5.92;;;;;;;20.73;28.42;99507.67;1758785;80;21196;-15
2021/03/20 06:14:47;;;;;;;7.97;5.85;;;;;;;20.71;28.12;99509.62;1758855;80;21192;-14
2021/03/20 06:17:47;;;;;;;7.97;6.17;;;;;;;20.69;27.62;99512.03;1747037;80;21129;-14
2021/03/20 06:20:39;;;;;;;10.75;6.40;;;;;;;20.67;27.59;99512.14;1752062;80;22010;-14
2021/03/20 06:23:28;;;;;;;7.90;6.03;;;;;;;20.65;27.46;99512.75;1761275;80;21150;-15
2021/03/20 06:26:03;;;;;;;20.52;6.03;;;;;;;20.63;27.50;99510.69;1718857;82;21092;-13
2021/03/20 06:28:36;;;;;;;14.93;5.80;;;;;;;20.64;28.84;99515.05;1751597;80;21596;-15
2021/03/20 06:31:09;;;;;;;9.73;5.58;;;;;;;20.67;29.69;99517.98;1757423;80;21168;-13
2021/03/20 06:34:07;;;;;;;13.60;5.80;;;;;;;20.70;30.28;99523.94;1755072;80;21192;-16
2021/03/20 06:36:43;;;;;;;14.58;5.40;;;;;;;20.75;30.66;99527.11;1762555;80;21142;-13
2021/03/20 06:39:19;;;;;;;5.70;4.78;;;;;;;20.79;31.07;99526.39;1720086;81;21069;-13
2021/03/20 06:42:01;;;;;;;11.18;5.05;;;;;;;20.84;31.28;99534.06;1723223;80;21208;-16
2021/03/20 06:44:41;;;;;;;15.08;5.83;;;;;;;20.86;31.63;99528.11;1747612;80;21193;-14
2021/03/20 06:47:24;;;;;;;7.83;4.85;;;;;;;20.90;31.93;99529.59;1729174;80;21225;-15
2021/03/20 06:50:22;;;;;;;5.95;4.83;;;;;;;20.94;32.04;99537.73;1763167;80;21194;-15
2021/03/20 06:52:56;;;;;;;8.95;4.45;;;;;;;20.98;32.28;99539.21;1753483;80;21197;-14
2021/03/20 06:55:33;;;;;;;6.20;5.00;;;;;;;21.02;32.31;99538.48;1737736;80;21520;-15
2021/03/20 06:58:29;;;;;;;6.37;4.83;;;;;;;21.03;32.35;99535.69;1759374;80;21125;-14
2021/03/20 07:01:13;;;;;;;6.72;5.25;;;;;;;21.06;32.49;99538.09;1725538;80;21636;-15
2021/03/20 07:04:18;;;;;;;7.65;5.00;;;;;;;21.11;32.65;99541.27;1751337;80;21152;-16
2021/03/20 07:07:04;;;;;;;8.33;4.83;;;;;;;21.18;32.86;99544.81;1751643;80;21690;-16
2021/03/20 07:09:32;;;;;;;7.47;4.40;;;;;;;21.27;32.78;99553.47;1726423;80;21205;-14
2021/03/20 07:12:21;;;;;;;6.65;4.33;;;;;;;21.31;32.79;99546.89;1759827;80;21617;-16
2021/03/20 07:14:54;;;;;;;13.35;5.28;;;;;;;21.36;32.69;99553.23;1732370;80;21585;-15
2021/03/20 07:17:28;;;;;;;26.62;5.65;;;;;;;21.42;32.73;99555.42;1755298;80;21193;-14
2021/03/20 07:20:13;;;;;;;25.85;5.95;;;;;;;21.43;33.41;99557.95;1767137;80;21158;-16
2021/03/20 07:22:48;;;;;;;22.20;6.28;;;;;;;21.46;34.64;99564.41;1754422;80;22107;-15
2021/03/20 07:25:32;;;;;;;30.27;6.28;;;;;;;21.50;35.29;99565.92;1715357;80;21184;-14
2021/03/20 07:28:11;;;;;;;17.45;5.65;;;;;;;21.55;35.68;99566.02;1755883;80;21358;-16
2021/03/20 07:31:05;;;;;;;21.68;5.95;;;;;;;21.62;35.92;99571.24;1735794;80;21141;-16
2021/03/20 07:33:47;;;;;;;26.50;5.53;;;;;;;21.66;35.79;99564.69;1742285;80;21158;-15
2021/03/20 07:36:27;;;;;;;21.33;5.08;;;;;;;21.70;35.57;99574.16;1732436;80;21157;-18
2021/03/20 07:39:15;;;;;;;14.65;5.87;;;;;;;21.75;35.72;99573.80;1755417;80;21595;-16
2021/03/20 07:42:02;;;;;;;13.68;5.35;;;;;;;21.80;35.58;99579.64;1758798;80;22124;-16
2021/03/20 07:45:01;;;;;;;14.98;5.30;;;;;;;21.84;35.32;99575.26;1737620;80;21525;-15
2021/03/20 07:47:38;;;;;;;16.45;5.15;;;;;;;21.88;35.44;99576.70;1767803;80;21203;-15
2021/03/20 07:50:23;;;;;;;12.75;5.58;;;;;;;21.95;35.16;99580.23;1750679;80;21565;-15
2021/03/20 07:53:12;;;;;;;15.43;5.28;;;;;;;22.02;34.86;99581.42;1731315;80;21213;-16
2021/03/20 07:56:14;;;;;;;12.65;5.50;;;;;;;22.10;34.50;99583.00;1758843;80;21230;-17
2021/03/20 07:58:49;;;;;;;18.05;5.67;;;;;;;22.16;34.27;99584.34;1756960;80;21212;-14
2021/03/20 08:01:30;;;;;;;12.15;5.30;;;;;;;22.22;33.94;99577.13;1732401;80;21163;-17
2021/03/20 08:04:06;;;;;;;17.62;5.20;;;;;;;22.26;33.65;99576.75;1740781;80;21189;-15
2021/03/20 08:06:47;;;;;;;16.70;6.80;;;;;;;22.31;33.63;99569.71;1750620;80;21154;-15
2021/03/20 08:09:23;;;;;;;14.68;5.40;;;;;;;22.37;33.35;99573.20;1758352;80;21404;-18
2021/03/20 08:12:05;;;;;;;12.98;5.33;;;;;;;22.47;33.24;99575.97;1753873;79;21676;-18
2021/03/20 08:14:47;;;;;;;11.70;5.30;;;;;;;22.53;32.99;99574.13;1756513;80;21803;-15
2021/03/20 08:17:18;;;;;;;11.78;6.30;;;;;;;22.59;32.79;99580.33;1722333;80;21793;-16
2021/03/20 08:19:47;;;;;;;343.63;280.37;;;;;;;22.65;32.73;99584.81;1750300;80;21208;-15
2021/03/20 08:22:39;;;;;;;177.95;144.80;;;;;;;22.66;28.54;99583.81;1748256;80;21381;-18
2021/03/20 08:25:50;;;;;;;114.30;90.28;;;;;;;22.37;29.63;99591.13;1764644;80;21621;-16
2021/03/20 08:28:52;;;;;;;98.58;75.22;;;;;;;22.20;29.32;99587.97;1687035;80;21188;-16
2021/03/20 08:31:34;;;;;;;81.57;61.60;;;;;;;22.14;28.51;99591.17;1754736;79;21273;-16
2021/03/20 08:34:38;;;;;;;67.37;51.08;;;;;;;22.08;27.33;99596.52;1760339;80;21200;-16
2021/03/20 08:37:30;;;;;;;54.00;40.25;;;;;;;21.96;27.29;99591.33;1770783;80;21292;-16
2021/03/20 08:40:13;;;;;;;47.93;34.15;;;;;;;21.83;27.30;99594.97;1770699;80;21179;-16
2021/03/20 08:43:19;;;;;;;45.10;30.72;;;;;;;21.76;26.96;99605.82;1766020;80;21323;-18
2021/03/20 08:46:19;;;;;;;35.50;27.55;;;;;;;21.75;26.79;99596.07;1765732;80;21796;-18
2021/03/20 08:49:30;;;;;;;21.87;19.35;;;;;;;21.75;26.67;99597.41;1773260;80;21726;-15
2021/03/20 08:52:15;;;;;;;30.37;20.35;;;;;;;21.68;25.67;99601.56;1715788;82;21250;-17
2021/03/20 08:54:58;;;;;;;;;;;;;;;21.57;25.65;99600.21;1714346;82;21230;-16
2021/03/20 08:57:52;;;;;;;22.32;18.10;;;;;;;21.57;25.62;99602.42;1689974;83;20265;-17
2021/03/20 09:00:40;;;;;;;17.23;13.93;;;;;;;21.60;25.78;99602.66;1731936;82;21220;-18
2021/03/20 09:03:11;;;;;;;19.57;15.20;;;;;;;21.61;24.96;99607.05;1730484;82;21861;-15
2021/03/20 09:05:47;;;;;;;17.67;13.72;;;;;;;21.57;25.10;99602.89;1723535;82;21273;-15
2021/03/20 09:08:29;;;;;;;13.83;11.95;;;;;;;21.54;25.21;99609.35;1710925;82;21279;-14
2021/03/20 09:11:28;;;;;;;16.57;11.08;;;;;;;21.50;24.79;99603.39;1712630;83;21182;-15
2021/03/20 09:14:22;;;;;;;10.25;8.65;;;;;;;21.48;24.77;99605.81;1712131;82;21200;-15
2021/03/20 09:16:57;;;;;;;12.40;9.25;;;;;;;21.46;24.37;99601.88;1710551;82;21197;-16
2021/03/20 09:19:39;;;;;;;9.38;7.42;;;;;;;21.45;24.13;99597.52;1692797;83;22022;-16
2021/03/20 09:22:13;;;;;;;7.60;6.40;;;;;;;21.43;23.97;99607.47;1716769;82;21876;-17
2021/03/20 09:24:49;;;;;;;8.75;6.97;;;;;;;21.40;23.47;99610.88;1691966;82;21656;-15
2021/03/20 09:28:10;;;;;;;8.48;5.45;;;;;;;21.30;23.57;99607.59;1707510;82;21188;-15
2021/03/20 09:30:56;;;;;;;6.40;5.05;;;;;;;21.21;22.52;99606.12;1730819;82;21188;-17
2021/03/20 09:33:33;;;;;;;5.58;4.83;;;;;;;21.01;22.08;99611.17;1732173;82;23060;-17
2021/03/20 09:36:22;;;;;;;4.92;4.45;;;;;;;20.91;22.85;99606.16;1731405;82;21201;-17
2021/03/20 09:38:53;;;;;;;4.95;3.58;;;;;;;20.83;22.65;99604.55;1702240;82;21189;-16
2021/03/20 09:41:30;;;;;;;2.60;2.40;;;;;;;20.77;21.58;99616.08;1711032;82;21152;-15
2021/03/20 09:44:03;;;;;;;2.42;2.17;;;;;;;20.64;21.12;99613.95;1736289;82;22324;-17
2021/03/20 09:46:46;;;;;;;3.25;3.05;;;;;;;20.46;20.86;99603.27;1701186;82;21208;-16
2021/03/20 09:49:25;;;;;;;3.00;2.80;;;;;;;20.36;21.66;99607.14;1705833;82;21140;-15
2021/03/20 09:51:59;;;;;;;2.80;2.60;;;;;;;20.35;21.16;99602.75;1700884;83;21177;-16
2021/03/20 09:54:35;;;;;;;;;;;;;;;20.25;21.26;99605.23;1699041;83;21203;-15
2021/03/20 09:57:17;;;;;;;;;;;;;;;20.22;22.06;99596.98;1720472;83;20231;-15
2021/03/20 09:59:46;;;;;;;3.02;2.30;;;;;;;20.24;21.63;99606.22;1685551;83;20616;-18
2021/03/20 10:02:27;;;;;;;3.10;2.80;;;;;;;20.24;22.10;99596.87;1709289;83;21212;-15
2021/03/20 10:05:05;;;;;;;3.83;2.90;;;;;;;20.26;22.26;99597.61;1712314;83;21237;-15
2021/03/20 10:07:34;;;;;;;4.00;2.50;;;;;;;20.28;21.38;99601.01;1699944;83;21157;-14
2021/03/20 10:10:17;;;;;;;2.90;2.58;;;;;;;20.16;21.86;99586.73;1709834;83;21283;-17
2021/03/20 10:12:54;;;;;;;3.98;3.58;;;;;;;20.13;22.42;99591.45;1712171;83;21278;-16
2021/03/20 10:15:34;;;;;;;3.15;2.95;;;;;;;20.18;22.81;99593.30;1708354;83;21181;-15
2021/03/20 10:18:17;;;;;;;2.77;2.58;;;;;;;20.25;22.65;99597.22;1708500;83;21169;-17
2021/03/20 10:20:50;;;;;;;3.17;2.80;;;;;;;20.35;22.52;99596.91;1714545;82;21174;-17
2021/03/20 10:23:40;;;;;;;4.67;2.45;;;;;;;20.35;21.88;99594.23;1713240;82;21263;-16
2021/03/20 10:26:37;;;;;;;3.05;2.75;;;;;;;20.32;22.35;99599.80;1696977;83;21205;-16
2021/03/20 10:29:20;;;;;;;2.70;2.50;;;;;;;20.36;22.42;99593.28;1707003;82;38555;-16
2021/03/20 10:31:51;;;;;;;2.60;2.42;;;;;;;20.45;22.44;99590.90;1711531;82;21145;-18
2021/03/20 10:34:25;;;;;;;3.15;2.95;;;;;;;20.55;22.57;99597.25;1708843;83;21177;-15
2021/03/20 10:37:06;;;;;;;2.83;2.60;;;;;;;20.59;22.55;99592.03;1754475;80;21162;-16
2021/03/20 10:39:36;;;;;;;3.55;3.25;;;;;;;20.67;22.73;99591.01;1754042;80;21320;-15
2021/03/20 10:42:28;;;;;;;3.17;2.95;;;;;;;20.71;22.62;99593.84;1749226;80;21099;-15
2021/03/20 10:44:58;;;;;;;3.45;3.05;;;;;;;20.77;22.39;99591.17;1733066;80;21184;-15
2021/03/20 10:47:32;;;;;;;2.90;2.55;;;;;;;20.82;22.38;99594.34;1760291;79;21245;-16
2021/03/20 10:50:20;;;;;;;2.80;2.60;;;;;;;20.86;22.06;99589.61;1749377;80;21641;-17
2021/03/20 10:52:49;;;;;;;3.52;3.20;;;;;;;20.85;22.37;99585.25;1753825;80;21220;-17
2021/03/20 10:55:21;;;;;;;6.62;4.35;;;;;;;20.89;22.66;99592.90;1714746;80;21189;-15
2021/03/20 10:57:48;;;;;;;4.80;3.95;;;;;;;20.97;23.96;99593.66;1751805;80;21260;-16
2021/03/20 11:00:25;;;;;;;5.08;4.53;;;;;;;21.05;23.50;99587.24;1753747;80;21688;-14
2021/03/20 11:02:52;;;;;;;4.87;4.17;;;;;;;21.05;23.32;99589.92;1745275;80;21177;-17
2021/03/20 11:05:30;;;;;;;4.40;4.00;;;;;;;21.02;23.09;99584.80;1748615;80;21404;-16
2021/03/20 11:08:05;;;;;;;4.35;3.95;;;;;;;21.03;23.06;99590.98;1730664;80;21209;-16
2021/03/20 11:10:40;;;;;;;3.87;3.35;;;;;;;21.04;22.79;99590.88;1750678;80;21223;-15
2021/03/20 11:13:34;;;;;;;4.20;3.80;;;;;;;21.07;22.89;99591.14;1751824;80;21241;-17
2021/03/20 11:16:06;;;;;;;3.77;3.42;;;;;;;21.12;22.36;99593.81;1755188;80;21022;-15
2021/03/20 11:18:39;;;;;;;19.73;12.18;;;;;;;21.13;22.93;99592.86;1752899;80;21241;-14
2021/03/20 11:21:30;;;;;;;18.35;11.90;;;;;;;21.10;22.10;99590.41;1759545;80;21820;-15
2021/03/20 11:24:07;;;;;;;14.45;9.60;;;;;;;20.98;21.65;99588.70;1755954;80;21154;-15
2021/03/20 11:26:44;;;;;;;10.58;8.40;;;;;;;20.80;21.53;99594.11;1742754;80;21217;-17
2021/03/20 11:29:24;;;;;;;11.83;6.70;;;;;;;20.63;21.74;99596.23;1739223;80;21278;-14
2021/03/20 11:32:03;;;;;;;11.90;6.47;;;;;;;20.58;21.54;99595.70;1730107;80;22580;-15
2021/03/20 11:34:39;;;;;;;6.62;5.15;;;;;;;20.58;21.37;99598.37;1738605;80;21228;-15
2021/03/20 11:37:09;;;;;;;7.55;4.87;;;;;;;20.59;21.16;99594.70;1752367;80;21246;-14
2021/03/20 11:39:36;;;;;;;8.30;3.55;;;;;;;20.60;20.47;99599.09;1752821;80;21184;-13
2021/03/20 11:42:09;;;;;;;3.72;3.42;;;;;;;20.56;20.58;99601.61;1755958;80;21184;-15
2021/03/20 11:44:45;;;;;;;7.08;4.15;;;;;;;20.54;20.93;99598.21;1756287;80;21244;-15
2021/03/20 11:47:28;;;;;;;6.58;4.03;;;;;;;20.54;21.36;99590.19;1727192;80;21255;-16
2021/03/20 11:50:00;;;;;;;7.80;4.40;;;;;;;20.56;21.67;99592.26;1730392;81;21286;-16
2021/03/20 11:52:33;;;;;;;8.05;4.67;;;;;;;20.60;22.04;99589.74;1738664;80;21228;-14
2021/03/20 11:55:08;;;;;;;7.47;4.78;;;;;;;20.62;22.29;99585.12;1746891;80;21235;-13
2021/03/20 11:57:39;;;;;;;7.78;4.62;;;;;;;20.67;22.58;99588.34;1751792;79;21547;-15
2021/03/20 12:00:38;;;;;;;10.78;4.12;;;;;;;20.71;22.86;99585.81;1754768;80;21254;-14
2021/03/20 12:03:29;;;;;;;3.75;3.42;;;;;;;20.74;23.17;99585.55;1758001;80;21219;-14
2021/03/20 12:06:19;;;;;;;5.10;3.40;;;;;;;20.80;22.30;99580.74;1756687;80;21189;-14
2021/03/20 12:08:54;;;;;;;3.12;2.90;;;;;;;20.82;22.20;99585.48;1753781;80;21707;-14
2021/03/20 12:11:45;;;;;;;9.73;5.62;;;;;;;20.82;21.96;99580.13;1747592;80;21199;-14
2021/03/20 12:14:39;;;;;;;16.85;9.03;;;;;;;20.83;21.83;99577.80;1682507;83;21247;-16
2021/03/20 12:17:18;;;;;;;13.93;7.65;;;;;;;20.84;22.09;99571.50;1750581;80;22292;-14
2021/03/20 12:19:57;;;;;;;9.15;5.50;;;;;;;20.84;22.35;99566.99;1753823;80;21216;-14
2021/03/20 12:22:44;;;;;;;6.50;5.03;;;;;;;20.86;22.50;99573.08;1754939;80;21225;-15
2021/03/20 12:25:27;;;;;;;6.05;4.90;;;;;;;20.87;22.60;99565.92;1762305;80;22619;-13
2021/03/20 12:28:26;;;;;;;9.65;5.25;;;;;;;20.88;22.81;99566.27;1723932;81;21783;-14
2021/03/20 12:31:17;;;;;;;6.17;4.10;;;;;;;20.89;23.14;99567.98;1696761;80;21152;-16